Portada
METAR-TAF:

METAR-TAF

Aeroports :

Greenville, Carolina del Sud, Estats Units d'Amèrica

latitud: 34-45-30N, longitud: 082-22-35W, altitud: 291 m

Observació

L'informe es va fer fa 55 minuts, a les 12:47 UTC
Vent 4 kt del Est
Temperatura 8°C
Humitat 100%
Pressió 1010 hPa
Visibilitat: 1.6 km
Cel cobert a una alçada de 200 ft
boirina

METAR: KGYH 191247Z 08004KT 1SM BR OVC002 08/08 A2982

Hora: 08:42 (13:42 UTC)


TAF: manca

Observacions i pronòstics meteorològics de més de 4000 aeroports (METAR i TAF).

Les estacions disponibles són els punts grocs i vermells al mapa.

Posi el ratolí al punt desitjat per veure el nom de l'estació.

Feu clic per veure les observacions i els pronòstics meteorològics.

Per canviar el mapa: feu clic els botons verds amb una creu de color negre per apropar; al botó verd amb un guió per allunyar la imatge; o en les fletxes verdes per a mapes adjacents.


METAR-TAF: